nws-alerts: Checking more than four warning/county codes can delay the loading of your pages. You should use a cron job to get the data.
EllijayWeather Station Historical Data
Daily Summary for September 13, 2018 Units:  English    Metric   Both
Daily Weekly Monthly Yearly Custom
  High: Low: Average:
Temperature: 86.5 °F 66.9 °F 75.2 °F
Dew Point: 75.7 °F 64.8 °F 70.5 °F
Humidity: 93% 63% 86%
Wind Speed: 6mph 0mph 0.2mph
Wind Gust: 8mph - -
Wind- - SW
Pressure: 30.14 in 30.02 in -
Precipitation: 0 in    
Historical Graphs
 
 
Tabular Data for September 13, 2018
Time Temperature Dew Point Pressure Wind Wind Speed Wind Gust Humidity Rainfall Rate (Hourly) solar
00:04 71.6 °F 69.1 °F 30.12 in Calm     92% 0 in meteobridge W/m2
00:09 71.4 °F 68.9 °F 30.11 in Calm     92% 0 in meteobridge W/m2
00:14 71.2 °F 68.7 °F 30.11 in Calm     92% 0 in meteobridge W/m2
00:19 71.2 °F 68.7 °F 30.11 in Calm     92% 0 in meteobridge W/m2
00:24 71.2 °F 68.7 °F 30.11 in Calm     92% 0 in meteobridge W/m2
00:29 71.1 °F 68.5 °F 30.12 in Calm     92% 0 in meteobridge W/m2
00:34 71.1 °F 68.5 °F 30.11 in Calm     92% 0 in meteobridge W/m2
00:39 71.1 °F 68.5 °F 30.11 in Calm     92% 0 in meteobridge W/m2
00:44 71.1 °F 68.5 °F 30.11 in Calm     92% 0 in meteobridge W/m2
00:49 70.9 °F 68.4 °F 30.11 in Calm     92% 0 in meteobridge W/m2
00:54 70.9 °F 68.4 °F 30.11 in Calm     92% 0 in meteobridge W/m2
00:59 70.7 °F 68.2 °F 30.11 in Calm     92% 0 in meteobridge W/m2
01:04 70.5 °F 68 °F 30.11 in Calm     92% 0 in meteobridge W/m2
01:09 70.5 °F 68 °F 30.11 in Calm     92% 0 in meteobridge W/m2
01:14 70.3 °F 67.8 °F 30.11 in Calm     92% 0 in meteobridge W/m2
01:19 70.3 °F 67.8 °F 30.11 in Calm     92% 0 in meteobridge W/m2
01:24 70.3 °F 67.8 °F 30.11 in Calm     92% 0 in meteobridge W/m2
01:29 70.3 °F 67.8 °F 30.11 in Calm     92% 0 in meteobridge W/m2
01:34 70.2 °F 67.6 °F 30.11 in Calm     92% 0 in meteobridge W/m2
01:39 70.2 °F 68 °F 30.11 in Calm     93% 0 in meteobridge W/m2
01:44 70.2 °F 68 °F 30.11 in Calm     93% 0 in meteobridge W/m2
01:49 70 °F 67.8 °F 30.11 in Calm     93% 0 in meteobridge W/m2
01:54 70 °F 67.8 °F 30.11 in Calm     93% 0 in meteobridge W/m2
01:59 70 °F 67.8 °F 30.11 in Calm     93% 0 in meteobridge W/m2
02:04 70 °F 67.5 °F 30.11 in Calm     92% 0 in meteobridge W/m2
02:09 69.6 °F 67.3 °F 30.11 in Calm     92% 0 in meteobridge W/m2
02:14 69.6 °F 67.3 °F 30.11 in Calm     92% 0 in meteobridge W/m2
02:19 69.6 °F 67.3 °F 30.10 in Calm     92% 0 in meteobridge W/m2
02:24 69.6 °F 67.3 °F 30.10 in Calm     92% 0 in meteobridge W/m2
02:29 69.4 °F 67.3 °F 30.10 in Calm     93% 0 in meteobridge W/m2
02:34 69.4 °F 67.3 °F 30.10 in Calm     93% 0 in meteobridge W/m2
02:39 69.4 °F 67.3 °F 30.10 in Calm     93% 0 in meteobridge W/m2
02:44 69.3 °F 67.1 °F 30.10 in Calm     93% 0 in meteobridge W/m2
02:49 69.3 °F 67.1 °F 30.10 in Calm     93% 0 in meteobridge W/m2
02:54 69.3 °F 66.9 °F 30.10 in Calm     92% 0 in meteobridge W/m2
02:59 69.3 °F 66.9 °F 30.10 in Calm     92% 0 in meteobridge W/m2
03:04 69.1 °F 66.7 °F 30.10 in Calm     92% 0 in meteobridge W/m2
03:09 69.1 °F 66.7 °F 30.10 in Calm     92% 0 in meteobridge W/m2
03:14 69.1 °F 66.7 °F 30.10 in Calm     92% 0 in meteobridge W/m2
03:19 69.1 °F 66.7 °F 30.10 in Calm     92% 0 in meteobridge W/m2
03:24 69.1 °F 66.7 °F 30.09 in Calm     92% 0 in meteobridge W/m2
03:29 68.9 °F 66.7 °F 30.09 in Calm     93% 0 in meteobridge W/m2
03:34 68.7 °F 66.6 °F 30.10 in Calm     93% 0 in meteobridge W/m2
03:39 68.7 °F 66.6 °F 30.09 in Calm     93% 0 in meteobridge W/m2
03:44 68.7 °F 66.6 °F 30.09 in Calm     93% 0 in meteobridge W/m2
03:49 68.7 °F 66.6 °F 30.09 in Calm     93% 0 in meteobridge W/m2
03:54 68.5 °F 66.4 °F 30.09 in Calm     93% 0 in meteobridge W/m2
03:59 68.5 °F 66.4 °F 30.09 in Calm     93% 0 in meteobridge W/m2
04:04 68.5 °F 66.2 °F 30.09 in Calm     92% 0 in meteobridge W/m2
04:09 68.5 °F 66.2 °F 30.09 in Calm     92% 0 in meteobridge W/m2
04:14 68.4 °F 66 °F 30.09 in Calm     92% 0 in meteobridge W/m2
04:19 68.4 °F 66 °F 30.09 in Calm     92% 0 in meteobridge W/m2
04:24 68.4 °F 66.2 °F 30.09 in Calm     93% 0 in meteobridge W/m2
04:29 68.4 °F 66.2 °F 30.09 in Calm     93% 0 in meteobridge W/m2
04:34 68.2 °F 66 °F 30.09 in Calm     93% 0 in meteobridge W/m2
04:39 68.2 °F 66 °F 30.09 in Calm     93% 0 in meteobridge W/m2
04:44 68.2 °F 66 °F 30.09 in Calm     93% 0 in meteobridge W/m2
04:49 68.2 °F 66 °F 30.09 in Calm     93% 0 in meteobridge W/m2
04:54 68 °F 65.8 °F 30.09 in Calm     93% 0 in meteobridge W/m2
04:59 68 °F 65.8 °F 30.09 in Calm     93% 0 in meteobridge W/m2
05:04 67.8 °F 65.7 °F 30.09 in Calm     93% 0 in meteobridge W/m2
05:09 67.8 °F 65.7 °F 30.09 in Calm     93% 0 in meteobridge W/m2
05:14 67.8 °F 65.7 °F 30.09 in Calm     93% 0 in meteobridge W/m2
05:19 67.8 °F 65.7 °F 30.09 in Calm     93% 0 in meteobridge W/m2
05:24 67.8 °F 65.7 °F 30.09 in Calm     93% 0 in meteobridge W/m2
05:29 67.8 °F 65.7 °F 30.09 in Calm     93% 0 in meteobridge W/m2
05:34 67.8 °F 65.7 °F 30.09 in Calm     93% 0 in meteobridge W/m2
05:39 67.8 °F 65.7 °F 30.09 in Calm     93% 0 in meteobridge W/m2
05:44 67.8 °F 65.7 °F 30.09 in Calm     93% 0 in meteobridge W/m2
05:49 67.8 °F 65.7 °F 30.09 in Calm     93% 0 in meteobridge W/m2
05:54 67.8 °F 65.7 °F 30.09 in Calm     93% 0 in meteobridge W/m2
05:59 67.6 °F 65.5 °F 30.09 in Calm     93% 0 in meteobridge W/m2
06:04 67.6 °F 65.5 °F 30.09 in Calm     93% 0 in meteobridge W/m2
06:09 67.6 °F 65.5 °F 30.09 in Calm     93% 0 in meteobridge W/m2
06:14 67.6 °F 65.5 °F 30.09 in Calm     93% 0 in meteobridge W/m2
06:19 67.6 °F 65.5 °F 30.10 in Calm     93% 0 in meteobridge W/m2
06:24 67.6 °F 65.5 °F 30.10 in Calm     93% 0 in meteobridge W/m2
06:29 67.6 °F 65.5 °F 30.10 in Calm     93% 0 in meteobridge W/m2
06:34 67.6 °F 65.5 °F 30.10 in Calm     93% 0 in meteobridge W/m2
06:38 67.5 °F 65.3 °F 30.10 in Calm     93% 0 in meteobridge W/m2
06:44 67.5 °F 65.3 °F 30.10 in Calm     93% 0 in meteobridge W/m2
06:49 67.5 °F 65.3 °F 30.10 in Calm     93% 0 in meteobridge W/m2
06:54 67.3 °F 65.1 °F 30.11 in Calm     93% 0 in meteobridge W/m2
06:59 67.3 °F 65.1 °F 30.11 in Calm     93% 0 in meteobridge W/m2
07:04 67.3 °F 65.1 °F 30.11 in Calm     93% 0 in meteobridge W/m2
07:09 67.1 °F 64.9 °F 30.11 in Calm     93% 0 in meteobridge W/m2
07:14 67.1 °F 64.9 °F 30.11 in Calm     93% 0 in meteobridge W/m2
07:19 66.9 °F 64.8 °F 30.11 in Calm     93% 0 in meteobridge W/m2
07:24 66.9 °F 64.8 °F 30.11 in Calm     93% 0 in meteobridge W/m2
07:29 66.9 °F 64.8 °F 30.11 in Calm     93% 0 in meteobridge W/m2
07:34 66.9 °F 64.8 °F 30.11 in Calm     93% 0 in meteobridge W/m2
07:39 66.9 °F 64.8 °F 30.11 in Calm     93% 0 in meteobridge W/m2
07:44 66.9 °F 64.8 °F 30.12 in Calm     93% 0 in meteobridge W/m2
07:49 66.9 °F 64.8 °F 30.12 in Calm     93% 0 in meteobridge W/m2
07:54 66.9 °F 64.8 °F 30.13 in Calm     93% 0 in meteobridge W/m2
07:59 67.1 °F 64.9 °F 30.13 in Calm     93% 0 in meteobridge W/m2
08:04 67.1 °F 64.9 °F 30.13 in Calm     93% 0 in meteobridge W/m2
08:09 67.3 °F 65.1 °F 30.13 in Calm     93% 0 in meteobridge W/m2
08:14 67.5 °F 65.3 °F 30.13 in Calm     93% 0 in meteobridge W/m2
08:19 67.5 °F 65.3 °F 30.13 in Calm     93% 0 in meteobridge W/m2
08:24 67.5 °F 65.3 °F 30.13 in Calm     93% 0 in meteobridge W/m2
08:29 67.6 °F 65.5 °F 30.14 in Calm     93% 0 in meteobridge W/m2
08:34 67.6 °F 65.5 °F 30.14 in Calm     93% 0 in meteobridge W/m2
08:39 67.8 °F 65.7 °F 30.14 in Calm     93% 0 in meteobridge W/m2
08:44 68 °F 65.8 °F 30.14 in Calm     93% 0 in meteobridge W/m2
08:49 68.2 °F 66 °F 30.14 in Calm     93% 0 in meteobridge W/m2
08:54 68.4 °F 66.2 °F 30.14 in Calm     93% 0 in meteobridge W/m2
08:59 68.5 °F 66.4 °F 30.14 in Calm     93% 0 in meteobridge W/m2
09:04 68.7 °F 66.6 °F 30.14 in Calm     93% 0 in meteobridge W/m2
09:09 69.1 °F 66.9 °F 30.14 in Calm     93% 0 in meteobridge W/m2
09:14 69.3 °F 67.1 °F 30.14 in Calm     93% 0 in meteobridge W/m2
09:19 69.4 °F 67.3 °F 30.14 in Calm     93% 0 in meteobridge W/m2
09:24 70 °F 67.8 °F 30.14 in Calm     93% 0 in meteobridge W/m2
09:29 70.7 °F 68.5 °F 30.13 in Calm     93% 0 in meteobridge W/m2
09:34 71.1 °F 68.9 °F 30.13 in Calm     93% 0 in meteobridge W/m2
09:39 71.8 °F 69.6 °F 30.14 in Calm     93% 0 in meteobridge W/m2
09:44 72.1 °F 70 °F 30.13 in Calm     93% 0 in meteobridge W/m2
09:49 72.7 °F 70.5 °F 30.14 in Calm     93% 0 in meteobridge W/m2
09:54 72.9 °F 70.7 °F 30.14 in Calm     93% 0 in meteobridge W/m2
09:59 73.2 °F 70.7 °F 30.14 in Calm     92% 0 in meteobridge W/m2
10:04 73.6 °F 71.1 °F 30.14 in Calm     92% 0 in meteobridge W/m2
10:09 73.9 °F 71.4 °F 30.14 in Calm     92% 0 in meteobridge W/m2
10:14 74.3 °F 71.8 °F 30.14 in Calm     92% 0 in meteobridge W/m2
10:19 74.7 °F 72.1 °F 30.14 in Calm   4 mph 92% 0 in meteobridge W/m2
10:24 75 °F 72.5 °F 30.14 in Calm   1 mph 92% 0 in meteobridge W/m2
10:29 75.4 °F 72.5 °F 30.14 in Calm     91% 0 in meteobridge W/m2
10:34 75.9 °F 72.9 °F 30.14 in Calm   1 mph 90% 0 in meteobridge W/m2
10:39 76.5 °F 73 °F 30.14 in Calm     89% 0 in meteobridge W/m2
10:44 77 °F 73.6 °F 30.14 in Calm     89% 0 in meteobridge W/m2
10:49 77.4 °F 73.6 °F 30.13 in Calm     88% 0 in meteobridge W/m2
10:54 77.5 °F 73 °F 30.13 in Calm     86% 0 in meteobridge W/m2
10:59 78.1 °F 73.9 °F 30.13 in Calm     87% 0 in meteobridge W/m2
11:04 78.6 °F 73.8 °F 30.13 in Calm     85% 0 in meteobridge W/m2
11:09 79.2 °F 73.9 °F 30.13 in Calm     84% 0 in meteobridge W/m2
11:14 79.7 °F 73.8 °F 30.13 in Calm     82% 0 in meteobridge W/m2
11:19 80.1 °F 74.1 °F 30.13 in Calm   1 mph 82% 0 in meteobridge W/m2
11:24 80.2 °F 73.6 °F 30.13 in Calm     80% 0 in meteobridge W/m2
11:29 80.8 °F 74.5 °F 30.13 in Calm     81% 0 in meteobridge W/m2
11:34 81.1 °F 74.3 °F 30.13 in Calm     80% 0 in meteobridge W/m2
11:39 81.3 °F 73.4 °F 30.13 in Calm     77% 0 in meteobridge W/m2
11:44 81.7 °F 73.8 °F 30.12 in Calm   3 mph 77% 0 in meteobridge W/m2
11:49 81.9 °F 73.9 °F 30.12 in Calm   1 mph 77% 0 in meteobridge W/m2
11:54 82 °F 73.8 °F 30.12 in WNW 0.9 mph 3 mph 76% 0 in meteobridge W/m2
11:59 82 °F 73.8 °F 30.11 in Calm     76% 0 in meteobridge W/m2
12:04 82 °F 73.8 °F 30.11 in Calm     76% 0 in meteobridge W/m2
12:09 81.9 °F 73.6 °F 30.11 in Calm     76% 0 in meteobridge W/m2
12:14 81.9 °F 74.3 °F 30.11 in Calm     78% 0 in meteobridge W/m2
12:19 81.9 °F 74.7 °F 30.11 in Calm     79% 0 in meteobridge W/m2
12:24 81.9 °F 74.3 °F 30.10 in Calm   1 mph 78% 0 in meteobridge W/m2
12:29 82 °F 73.8 °F 30.10 in Calm   4 mph 76% 0 in meteobridge W/m2
12:34 82.2 °F 74.7 °F 30.10 in Calm     78% 0 in meteobridge W/m2
12:39 82.2 °F 74.7 °F 30.10 in Calm     78% 0 in meteobridge W/m2
12:44 82.4 °F 74.8 °F 30.10 in Calm     78% 0 in meteobridge W/m2
12:49 82.8 °F 74.8 °F 30.09 in NE 0.9 mph 5 mph 77% 0 in meteobridge W/m2
12:54 82.9 °F 74.7 °F 30.09 in WNW 0.9 mph 4 mph 76% 0 in meteobridge W/m2
12:59 82.9 °F 74.7 °F 30.09 in Calm   3 mph 76% 0 in meteobridge W/m2
13:04 82.8 °F 74.8 °F 30.09 in North 0.9 mph 1 mph 77% 0 in meteobridge W/m2
13:09 82.8 °F 75.2 °F 30.09 in Calm     78% 0 in meteobridge W/m2
13:14 83.1 °F 73.9 °F 30.08 in Calm   6 mph 74% 0 in meteobridge W/m2
13:19 83.7 °F 74.1 °F 30.08 in NE 4 mph 7 mph 73% 0 in meteobridge W/m2
13:24 84.2 °F 74.1 °F 30.08 in NE 0.9 mph 6 mph 72% 0 in meteobridge W/m2
13:29 84.6 °F 73.2 °F 30.08 in Calm   6 mph 69% 0 in meteobridge W/m2
13:34 84.7 °F 74.3 °F 30.08 in NW 2 mph 5 mph 71% 0 in meteobridge W/m2
13:39 84.7 °F 73.9 °F 30.08 in West 0.9 mph 2 mph 70% 0 in meteobridge W/m2
13:44 84.9 °F 73.6 °F 30.08 in Calm   4 mph 69% 0 in meteobridge W/m2
13:49 84.9 °F 74.1 °F 30.07 in Calm   1 mph 70% 0 in meteobridge W/m2
13:54 84.9 °F 74.1 °F 30.07 in NE 0.9 mph 3 mph 70% 0 in meteobridge W/m2
13:59 84.6 °F 73.8 °F 30.07 in NNW 0.9 mph 3 mph 70% 0 in meteobridge W/m2
14:04 84.4 °F 73.9 °F 30.07 in Calm     71% 0 in meteobridge W/m2
14:09 84.2 °F 75 °F 30.07 in Calm     74% 0 in meteobridge W/m2
14:14 84 °F 73.9 °F 30.06 in WNW 2 mph 4 mph 72% 0 in meteobridge W/m2
14:19 84.6 °F 75 °F 30.06 in Calm   1 mph 73% 0 in meteobridge W/m2
14:24 84.7 °F 73.9 °F 30.06 in Calm     70% 0 in meteobridge W/m2
14:29 84.9 °F 74.5 °F 30.06 in North 4.9 mph 6 mph 71% 0 in meteobridge W/m2
14:34 85.3 °F 73.6 °F 30.06 in Calm   4 mph 68% 0 in meteobridge W/m2
14:39 85.6 °F 73.4 °F 30.06 in Calm   8 mph 67% 0 in meteobridge W/m2
14:44 85.8 °F 72.7 °F 30.06 in Calm   3 mph 65% 0 in meteobridge W/m2
14:49 85.8 °F 73.6 °F 30.05 in WNW 2 mph 2 mph 67% 0 in meteobridge W/m2
14:54 85.8 °F 73.2 °F 30.05 in WNW 4 mph 4 mph 66% 0 in meteobridge W/m2
14:59 85.8 °F 73.2 °F 30.05 in Calm   7 mph 66% 0 in meteobridge W/m2
15:04 86 °F 72.9 °F 30.05 in Calm   1 mph 65% 0 in meteobridge W/m2
15:09 86.2 °F 73 °F 30.04 in North 0.9 mph 7 mph 65% 0 in meteobridge W/m2
15:14 86.4 °F 72.7 °F 30.04 in Calm   5 mph 64% 0 in meteobridge W/m2
15:19 86.5 °F 73.4 °F 30.04 in NW 0.9 mph 4 mph 65% 0 in meteobridge W/m2
15:24 86.5 °F 72.9 °F 30.04 in Calm   3 mph 64% 0 in meteobridge W/m2
15:29 86.5 °F 72.9 °F 30.03 in NNW 2 mph 5 mph 64% 0 in meteobridge W/m2
15:34 86.5 °F 72.5 °F 30.03 in Calm   3 mph 63% 0 in meteobridge W/m2
15:39 86.5 °F 72.5 °F 30.03 in North 0.9 mph 4 mph 63% 0 in meteobridge W/m2
15:44 86.5 °F 72.9 °F 30.03 in NE 2 mph 6 mph 64% 0 in meteobridge W/m2
15:49 86.5 °F 72.9 °F 30.03 in WNW 6 mph 6 mph 64% 0 in meteobridge W/m2
15:54 86.4 °F 73.2 °F 30.03 in Calm   2 mph 65% 0 in meteobridge W/m2
15:59 86.4 °F 73.6 °F 30.03 in NNE 2.9 mph 4 mph 66% 0 in meteobridge W/m2
16:04 86.5 °F 74.3 °F 30.03 in NE 0.9 mph 4 mph 67% 0 in meteobridge W/m2
16:09 86.4 °F 73.6 °F 30.03 in Calm   6 mph 66% 0 in meteobridge W/m2
16:14 86.4 °F 73.2 °F 30.03 in Calm   5 mph 65% 0 in meteobridge W/m2
16:19 86.4 °F 73.6 °F 30.03 in Calm   1 mph 66% 0 in meteobridge W/m2
16:24 86.2 °F 73.4 °F 30.03 in Calm     66% 0 in meteobridge W/m2
16:29 85.8 °F 74.5 °F 30.03 in NW 0.9 mph 4 mph 69% 0 in meteobridge W/m2
16:34 85.6 °F 73.9 °F 30.02 in Calm   3 mph 68% 0 in meteobridge W/m2
16:39 85.5 °F 74.5 °F 30.02 in Calm   3 mph 70% 0 in meteobridge W/m2
16:44 85.1 °F 75 °F 30.02 in Calm   1 mph 72% 0 in meteobridge W/m2
16:49 84.9 °F 74.8 °F 30.02 in Calm   1 mph 72% 0 in meteobridge W/m2
16:54 84.6 °F 75 °F 30.02 in Calm     73% 0 in meteobridge W/m2
16:59 84.4 °F 74.3 °F 30.02 in Calm   1 mph 72% 0 in meteobridge W/m2
17:04 84.2 °F 74.1 °F 30.02 in Calm     72% 0 in meteobridge W/m2
17:09 84 °F 75.2 °F 30.02 in Calm     75% 0 in meteobridge W/m2
17:14 83.7 °F 75.7 °F 30.02 in Calm     77% 0 in meteobridge W/m2
17:19 82.9 °F 75.7 °F 30.03 in Calm   1 mph 79% 0 in meteobridge W/m2
17:24 82.4 °F 75.6 °F 30.02 in Calm   1 mph 80% 0 in meteobridge W/m2
17:29 82 °F 75.2 °F 30.02 in Calm     80% 0 in meteobridge W/m2
17:34 81.7 °F 75.2 °F 30.03 in Calm     81% 0 in meteobridge W/m2
17:39 81 °F 75 °F 30.03 in Calm     82% 0 in meteobridge W/m2
17:44 80.4 °F 74.8 °F 30.03 in Calm     83% 0 in meteobridge W/m2
17:49 80.2 °F 74.7 °F 30.02 in Calm     83% 0 in meteobridge W/m2
17:54 80.1 °F 74.8 °F 30.02 in Calm     84% 0 in meteobridge W/m2
17:59 80.1 °F 74.8 °F 30.02 in Calm     84% 0 in meteobridge W/m2
18:04 79.9 °F 74.7 °F 30.02 in Calm     84% 0 in meteobridge W/m2
18:09 79.5 °F 74.3 °F 30.03 in Calm     84% 0 in meteobridge W/m2
18:14 79.3 °F 74.5 °F 30.03 in Calm     85% 0 in meteobridge W/m2
18:19 79.3 °F 74.8 °F 30.03 in Calm     86% 0 in meteobridge W/m2
18:24 79.2 °F 74.7 °F 30.03 in Calm     86% 0 in meteobridge W/m2
18:29 79.2 °F 74.7 °F 30.03 in Calm     86% 0 in meteobridge W/m2
18:34 79.2 °F 74.7 °F 30.03 in Calm     86% 0 in meteobridge W/m2
18:39 79.2 °F 75 °F 30.03 in Calm     87% 0 in meteobridge W/m2
18:44 79.2 °F 75 °F 30.02 in Calm     87% 0 in meteobridge W/m2
18:49 79.2 °F 75 °F 30.02 in Calm     87% 0 in meteobridge W/m2
18:54 79.2 °F 75 °F 30.03 in Calm     87% 0 in meteobridge W/m2
18:59 79 °F 74.8 °F 30.03 in Calm     87% 0 in meteobridge W/m2
19:04 79 °F 74.8 °F 30.03 in Calm     87% 0 in meteobridge W/m2
19:09 78.8 °F 74.7 °F 30.04 in Calm     87% 0 in meteobridge W/m2
19:14 78.6 °F 74.1 °F 30.04 in Calm     86% 0 in meteobridge W/m2
19:19 78.3 °F 73.8 °F 30.04 in Calm     86% 0 in meteobridge W/m2
19:24 78.3 °F 73.8 °F 30.04 in Calm     86% 0 in meteobridge W/m2
19:29 78.1 °F 73.6 °F 30.04 in Calm     86% 0 in meteobridge W/m2
19:34 78.1 °F 74.3 °F 30.04 in Calm     88% 0 in meteobridge W/m2
19:39 77.7 °F 73.6 °F 30.04 in Calm     87% 0 in meteobridge W/m2
19:44 77.5 °F 73.4 °F 30.04 in Calm     87% 0 in meteobridge W/m2
19:49 77.4 °F 73.2 °F 30.04 in Calm     87% 0 in meteobridge W/m2
19:54 77.2 °F 73 °F 30.04 in Calm     87% 0 in meteobridge W/m2
19:59 77 °F 72.9 °F 30.04 in Calm     87% 0 in meteobridge W/m2
20:04 76.6 °F 72.9 °F 30.04 in Calm     88% 0 in meteobridge W/m2
20:09 76.6 °F 72.9 °F 30.04 in Calm     88% 0 in meteobridge W/m2
20:14 76.3 °F 72.9 °F 30.04 in Calm     89% 0 in meteobridge W/m2
20:19 76.3 °F 72.5 °F 30.04 in Calm     88% 0 in meteobridge W/m2
20:24 76.1 °F 72.7 °F 30.04 in Calm     89% 0 in meteobridge W/m2
20:29 75.9 °F 72.5 °F 30.04 in Calm     89% 0 in meteobridge W/m2
20:34 75.7 °F 72.7 °F 30.04 in Calm     90% 0 in meteobridge W/m2
20:39 75.6 °F 72.5 °F 30.04 in Calm     90% 0 in meteobridge W/m2
20:44 75.4 °F 72.3 °F 30.04 in Calm     90% 0 in meteobridge W/m2
20:49 75.4 °F 72.3 °F 30.05 in Calm     90% 0 in meteobridge W/m2
20:54 75.2 °F 72.1 °F 30.05 in Calm     90% 0 in meteobridge W/m2
20:59 75 °F 72 °F 30.05 in Calm     90% 0 in meteobridge W/m2
21:04 74.8 °F 71.8 °F 30.06 in Calm     90% 0 in meteobridge W/m2
21:09 74.8 °F 72 °F 30.06 in Calm     91% 0 in meteobridge W/m2
21:14 74.7 °F 71.6 °F 30.06 in Calm     90% 0 in meteobridge W/m2
21:19 74.7 °F 71.8 °F 30.06 in Calm     91% 0 in meteobridge W/m2
21:24 74.5 °F 71.6 °F 30.06 in Calm     91% 0 in meteobridge W/m2
21:29 74.5 °F 71.6 °F 30.06 in Calm     91% 0 in meteobridge W/m2
21:34 74.5 °F 71.6 °F 30.06 in Calm     91% 0 in meteobridge W/m2
21:39 74.3 °F 71.4 °F 30.06 in Calm     91% 0 in meteobridge W/m2
21:44 74.3 °F 71.4 °F 30.07 in Calm     91% 0 in meteobridge W/m2
21:49 74.1 °F 71.2 °F 30.07 in Calm     91% 0 in meteobridge W/m2
21:54 74.1 °F 71.2 °F 30.07 in Calm     91% 0 in meteobridge W/m2
21:59 73.9 °F 71.1 °F 30.07 in Calm     91% 0 in meteobridge W/m2
22:04 73.9 °F 71.1 °F 30.07 in Calm     91% 0 in meteobridge W/m2
22:09 73.9 °F 71.1 °F 30.07 in Calm     91% 0 in meteobridge W/m2
22:14 73.9 °F 71.1 °F 30.07 in Calm     91% 0 in meteobridge W/m2
22:19 73.8 °F 70.9 °F 30.07 in Calm     91% 0 in meteobridge W/m2
22:24 73.8 °F 70.9 °F 30.06 in Calm     91% 0 in meteobridge W/m2
22:29 73.6 °F 70.7 °F 30.07 in Calm     91% 0 in meteobridge W/m2
22:34 73.6 °F 70.7 °F 30.06 in Calm     91% 0 in meteobridge W/m2
22:39 73.4 °F 70.5 °F 30.07 in Calm     91% 0 in meteobridge W/m2
22:44 73.4 °F 70.5 °F 30.06 in Calm     91% 0 in meteobridge W/m2
22:49 73.2 °F 70.5 °F 30.06 in Calm     91% 0 in meteobridge W/m2
22:54 73.2 °F 70.5 °F 30.06 in Calm     91% 0 in meteobridge W/m2
22:59 73.2 °F 70.5 °F 30.07 in Calm     91% 0 in meteobridge W/m2
23:04 73.2 °F 70.5 °F 30.07 in Calm     91% 0 in meteobridge W/m2
23:09 73 °F 70.3 °F 30.06 in Calm     91% 0 in meteobridge W/m2
23:14 73 °F 70.3 °F 30.06 in Calm     91% 0 in meteobridge W/m2
23:19 73 °F 70.3 °F 30.06 in Calm     91% 0 in meteobridge W/m2
23:24 73 °F 70.3 °F 30.06 in Calm     91% 0 in meteobridge W/m2
23:29 72.9 °F 70.2 °F 30.06 in Calm     91% 0 in meteobridge W/m2
23:34 72.9 °F 70.2 °F 30.06 in Calm     91% 0 in meteobridge W/m2
23:39 72.7 °F 70 °F 30.06 in Calm     91% 0 in meteobridge W/m2
23:44 72.7 °F 70 °F 30.06 in Calm     91% 0 in meteobridge W/m2
23:49 72.7 °F 70 °F 30.06 in Calm     91% 0 in meteobridge W/m2
23:54 72.5 °F 69.8 °F 30.06 in Calm     91% 0 in meteobridge W/m2
23:59 72.5 °F 69.8 °F 30.06 in Calm     91% 0 in meteobridge W/m2
EllijayWeather
Compliments of Weather Underground - 2.5 mb